Time;durP1;ratioP1;P1;durP2;ratioP2;P2;SDS_P1;SDS_P2;PMS_P1;PMS_P2;Temp;Humidity;BMP_temperature;BMP_pressure;BME280_temperature;BME280_humidity;BME280_pressure;Samples;Min_cycle;Max_cycle;Signal;HPM_P1;HPM_P2
2023/11/28 00:00:39;;;;;;;4.18;1.20;;;;;;;-146.25;100.00;52650.03;2079304;28;44091;-73
2023/11/28 00:01:41;;;;;;;2.78;1.23;;;;;;;-146.25;100.00;52643.97;2079341;28;42046;-71
2023/11/28 00:02:42;;;;;;;2.75;0.93;;;;;;;-146.25;100.00;52686.53;2078953;28;39440;-73
2023/11/28 00:03:44;;;;;;;4.50;0.80;;;;;;;-146.25;100.00;52700.72;2078396;28;42589;-71
2023/11/28 00:04:46;;;;;;;2.03;1.05;;;;;;;-146.25;100.00;52650.03;2079314;28;42041;-71
2023/11/28 00:05:48;;;;;;;1.75;0.98;;;;;;;-146.25;100.00;52635.84;2079027;28;41534;-72
2023/11/28 00:06:53;;;;;;;2.45;1.17;;;;;;;-146.25;100.00;52672.34;2079167;28;45255;-72
2023/11/28 00:07:55;;;;;;;1.80;0.70;;;;;;;-146.25;100.00;52627.75;2080557;28;20034;-72
2023/11/28 00:08:57;;;;;;;2.40;1.20;;;;;;;-146.25;100.00;52686.53;2079069;28;44425;-72
2023/11/28 00:10:03;;;;;;;4.03;0.77;;;;;;;-146.25;100.00;52674.38;2078696;28;46324;-70
2023/11/28 00:11:05;;;;;;;2.50;0.80;;;;;;;-146.25;100.00;52692.63;2078896;28;42665;-73
2023/11/28 00:12:07;;;;;;;1.45;0.90;;;;;;;-146.25;100.00;52678.44;2078580;28;44214;-73
2023/11/28 00:13:09;;;;;;;2.28;1.08;;;;;;;-146.25;100.00;52686.53;2079698;28;24383;-70
2023/11/28 00:14:11;;;;;;;2.60;0.68;;;;;;;-146.25;100.00;52650.03;2079259;28;44423;-74
2023/11/28 00:15:12;;;;;;;1.70;0.80;;;;;;;-146.25;100.00;52674.38;2079151;28;44692;-71
2023/11/28 00:16:15;;;;;;;1.67;0.80;;;;;;;-146.25;100.00;52648.00;2080246;28;20042;-70
2023/11/28 00:17:17;;;;;;;1.98;0.75;;;;;;;-146.25;100.00;52684.50;2079154;28;42403;-71
2023/11/28 00:18:19;;;;;;;2.13;1.02;;;;;;;-146.25;100.00;52704.78;2079347;28;43332;-71
2023/11/28 00:19:21;;;;;;;1.83;0.88;;;;;;;-146.25;100.00;52692.63;2081099;28;30735;-72
2023/11/28 00:20:22;;;;;;;2.55;0.80;;;;;;;-146.25;100.00;52676.41;2081177;28;20161;-71
2023/11/28 00:21:24;;;;;;;1.65;0.63;;;;;;;-146.25;100.00;52645.97;2080016;28;44291;-72
2023/11/28 00:22:26;;;;;;;2.10;0.82;;;;;;;-146.25;100.00;52656.13;2080692;28;45214;-71
2023/11/28 00:23:28;;;;;;;2.33;0.70;;;;;;;-146.25;100.00;52662.22;2081881;28;20077;-70
2023/11/28 00:24:29;;;;;;;2.63;0.90;;;;;;;-146.25;100.00;52680.47;2080417;28;44850;-74
2023/11/28 00:25:31;;;;;;;2.58;1.00;;;;;;;-146.25;100.00;52650.03;2080631;28;41371;-71
2023/11/28 00:26:33;;;;;;;2.25;0.70;;;;;;;-146.25;100.00;52652.06;2081518;28;20941;-74
2023/11/28 00:27:35;;;;;;;2.30;0.90;;;;;;;-146.25;100.00;52672.34;2081713;28;20940;-71
2023/11/28 00:28:37;;;;;;;3.25;0.70;;;;;;;-146.25;100.00;52658.16;2088135;28;35957;-72
2023/11/28 00:29:40;;;;;;;1.30;0.68;;;;;;;-146.25;100.00;52656.13;2087962;28;37780;-72
2023/11/28 00:30:41;;;;;;;1.67;0.57;;;;;;;-146.25;100.00;52670.31;2080420;28;39314;-72
2023/11/28 00:31:44;;;;;;;0.88;0.32;;;;;;;-146.25;100.00;52682.47;2089251;28;20049;-72
2023/11/28 00:32:47;;;;;;;1.80;0.80;;;;;;;-146.25;100.00;52672.34;2088657;28;20077;-73
2023/11/28 00:33:49;;;;;;;2.17;0.85;;;;;;;-146.25;100.00;52668.28;2080657;28;36124;-72
2023/11/28 00:34:51;;;;;;;1.85;0.68;;;;;;;-146.25;100.00;52670.31;2088310;28;39529;-73
2023/11/28 00:35:57;;;;;;;2.97;0.70;;;;;;;-146.25;100.00;52668.28;2088406;28;33462;-72
2023/11/28 00:36:58;;;;;;;1.08;0.40;;;;;;;-146.25;100.00;52625.72;2088518;28;38206;-73
2023/11/28 00:38:00;;;;;;;1.00;0.40;;;;;;;-146.25;100.00;52643.97;2088543;28;33733;-72
2023/11/28 00:39:03;;;;;;;0.82;0.40;;;;;;;-146.25;100.00;52637.88;2080653;28;35953;-73
2023/11/28 00:40:10;;;;;;;1.50;0.60;;;;;;;-146.25;100.00;52670.31;2080608;28;21004;-73
2023/11/28 00:41:12;;;;;;;1.08;0.50;;;;;;;-146.25;100.00;52704.78;2080104;28;30317;-73
2023/11/28 00:42:14;;;;;;;0.88;0.50;;;;;;;-146.25;100.00;52631.78;2080858;28;20100;-72
2023/11/28 00:43:16;;;;;;;1.10;0.57;;;;;;;-146.25;100.00;52643.97;2081260;28;25042;-72
2023/11/28 00:44:18;;;;;;;5.55;0.50;;;;;;;-146.25;100.00;52645.97;2080304;28;25086;-72
2023/11/28 00:45:24;;;;;;;1.27;0.40;;;;;;;-146.25;100.00;52700.72;2080456;28;22257;-73
2023/11/28 00:46:28;;;;;;;0.77;0.40;;;;;;;-146.25;100.00;52676.41;2087786;28;20042;-71
2023/11/28 00:47:30;;;;;;;1.52;0.47;;;;;;;-146.25;100.00;52700.72;2081681;28;20042;-73
2023/11/28 00:48:32;;;;;;;1.98;0.50;;;;;;;-146.25;100.00;52680.47;2080653;28;33946;-73
2023/11/28 00:49:34;;;;;;;1.50;0.70;;;;;;;-146.25;100.00;52658.16;2080701;28;33732;-73
2023/11/28 00:50:36;;;;;;;1.75;0.47;;;;;;;-146.25;100.00;52700.72;2088632;28;20049;-73
2023/11/28 00:51:42;;;;;;;2.13;0.55;;;;;;;-146.25;100.00;52631.78;2088188;28;36357;-72
2023/11/28 00:52:46;;;;;;;1.10;0.40;;;;;;;-146.25;100.00;52658.16;2080827;28;33521;-73
2023/11/28 00:53:50;;;;;;;2.03;0.50;;;;;;;-146.25;100.00;52660.19;2081881;28;20168;-73
2023/11/28 00:54:51;;;;;;;1.20;0.60;;;;;;;-146.25;100.00;52652.06;2087807;28;40590;-72
2023/11/28 00:55:53;;;;;;;1.10;0.50;;;;;;;-146.25;100.00;52692.63;2080048;28;30397;-73
2023/11/28 00:56:55;;;;;;;2.35;0.47;;;;;;;-146.25;100.00;52702.75;2079894;28;30101;-71
2023/11/28 00:57:57;;;;;;;1.20;0.30;;;;;;;-146.25;100.00;52682.47;2071684;28;39219;-72
2023/11/28 00:58:58;;;;;;;1.13;0.40;;;;;;;-146.25;100.00;52710.88;2079904;28;37851;-71
2023/11/28 01:00:03;;;;;;;1.10;0.40;;;;;;;-146.25;100.00;52688.56;2081285;28;20042;-72
2023/11/28 01:01:05;;;;;;;1.20;0.50;;;;;;;-146.25;100.00;52654.09;2080284;28;37482;-73
2023/11/28 01:02:08;;;;;;;2.33;0.70;;;;;;;-146.25;100.00;52672.34;2080536;28;20050;-73
2023/11/28 01:03:10;;;;;;;1.45;0.47;;;;;;;-146.25;100.00;52637.88;2079539;28;45718;-73
2023/11/28 01:04:12;;;;;;;1.40;0.40;;;;;;;-146.25;100.00;52700.72;2080365;28;24184;-74
2023/11/28 01:05:14;;;;;;;1.55;0.63;;;;;;;-146.25;100.00;52678.44;2087908;28;30746;-71
2023/11/28 01:06:16;;;;;;;1.00;0.35;;;;;;;-146.25;100.00;52670.31;2071370;28;39734;-72
2023/11/28 01:07:18;;;;;;;0.80;0.30;;;;;;;-146.25;100.00;52672.34;2072975;28;20042;-73
2023/11/28 01:08:19;;;;;;;1.80;0.50;;;;;;;-146.25;100.00;52684.50;2087755;28;39882;-73
2023/11/28 01:09:22;;;;;;;1.50;0.40;;;;;;;-146.25;100.00;52643.97;2088970;28;20048;-72
2023/11/28 01:10:24;;;;;;;2.05;0.60;;;;;;;-146.25;100.00;52670.31;2079869;28;38121;-73
2023/11/28 01:11:26;;;;;;;1.40;0.50;;;;;;;-146.25;100.00;52660.19;2079800;28;41120;-73
2023/11/28 01:12:28;;;;;;;1.10;0.45;;;;;;;-146.25;100.00;52662.22;2080521;28;20140;-73
2023/11/28 01:13:29;;;;;;;1.65;0.40;;;;;;;-146.25;100.00;52648.00;2071104;28;41786;-72
2023/11/28 01:14:32;;;;;;;0.82;0.40;;;;;;;-146.25;100.00;52670.31;2072494;28;20096;-72
2023/11/28 01:15:34;;;;;;;0.90;0.60;;;;;;;-146.25;100.00;52672.34;2072488;28;20847;-72
2023/11/28 01:16:36;;;;;;;1.48;0.50;;;;;;;-146.25;100.00;52694.66;2088018;28;35229;-71
2023/11/28 01:17:37;;;;;;;1.30;0.60;;;;;;;-146.25;100.00;52658.16;2080461;28;20049;-72
2023/11/28 01:18:39;;;;;;;1.63;0.30;;;;;;;-146.25;100.00;52662.22;2071218;28;42602;-72
2023/11/28 01:19:41;;;;;;;1.17;0.55;;;;;;;-146.25;100.00;52678.44;2080693;28;20049;-72
2023/11/28 01:20:44;;;;;;;1.77;0.50;;;;;;;-146.25;100.00;52684.50;2071350;28;40822;-72
2023/11/28 01:21:45;;;;;;;1.70;0.57;;;;;;;-146.25;100.00;52682.47;2072233;28;35029;-72
2023/11/28 01:22:48;;;;;;;1.20;0.50;;;;;;;-146.25;100.00;52686.53;2080952;28;20026;-72
2023/11/28 01:23:50;;;;;;;1.27;0.50;;;;;;;-146.25;100.00;52660.19;2080717;28;35526;-72
2023/11/28 01:24:52;;;;;;;3.25;0.70;;;;;;;-146.25;100.00;52648.00;2080252;28;39392;-72
2023/11/28 01:25:54;;;;;;;0.80;0.43;;;;;;;-146.25;100.00;52664.22;2081162;28;20081;-71
2023/11/28 01:26:55;;;;;;;1.83;0.63;;;;;;;-146.25;100.00;52680.47;2087637;28;35624;-71
2023/11/28 01:27:58;;;;;;;2.00;0.60;;;;;;;-146.25;100.00;52643.97;2080577;28;20041;-71
2023/11/28 01:29:03;;;;;;;2.78;0.60;;;;;;;-146.25;100.00;52704.78;2079546;28;38895;-71
2023/11/28 01:30:08;;;;;;;1.35;0.75;;;;;;;-146.25;100.00;52660.19;2080601;28;40241;-70
2023/11/28 01:31:11;;;;;;;1.27;0.52;;;;;;;-146.25;100.00;52670.31;2080850;28;20864;-71
2023/11/28 01:32:13;;;;;;;1.35;0.60;;;;;;;-146.25;100.00;52672.34;2080242;28;27879;-70
2023/11/28 01:33:17;;;;;;;1.73;0.80;;;;;;;-146.25;100.00;52645.97;2079809;28;32960;-69
2023/11/28 01:34:19;;;;;;;1.75;0.70;;;;;;;-146.25;100.00;52674.38;2071389;28;39203;-70
2023/11/28 01:35:24;;;;;;;2.25;0.90;;;;;;;-146.25;100.00;52686.53;2072718;28;20038;-70
2023/11/28 01:36:26;;;;;;;1.42;0.80;;;;;;;-146.25;100.00;52676.41;2081044;28;20070;-70
2023/11/28 01:37:27;;;;;;;1.75;0.68;;;;;;;-146.25;100.00;52680.47;2080594;28;29338;-70
2023/11/28 01:38:29;;;;;;;1.27;0.88;;;;;;;-146.25;100.00;52660.19;2080479;28;30766;-70
2023/11/28 01:39:31;;;;;;;1.45;0.75;;;;;;;-146.25;100.00;52658.16;2080584;28;30206;-70
2023/11/28 01:40:32;;;;;;;2.40;0.93;;;;;;;-146.25;100.00;52678.44;2080775;28;31178;-70
2023/11/28 01:41:37;;;;;;;1.30;0.75;;;;;;;-146.25;100.00;52696.69;2081232;28;20046;-71
2023/11/28 01:42:40;;;;;;;2.75;1.00;;;;;;;-146.25;100.00;52698.72;2081185;28;20131;-70
2023/11/28 01:43:44;;;;;;;1.85;1.25;;;;;;;-146.25;100.00;52672.34;2080662;28;22680;-70
2023/11/28 01:44:46;;;;;;;2.25;1.08;;;;;;;-146.25;100.00;52666.25;2079682;28;31969;-68
2023/11/28 01:45:48;;;;;;;1.40;0.77;;;;;;;-146.25;100.00;52662.22;2079330;28;38897;-71
2023/11/28 01:46:51;;;;;;;2.05;1.05;;;;;;;-146.25;100.00;52672.34;2071020;28;41049;-70
2023/11/28 01:47:54;;;;;;;2.67;1.30;;;;;;;-146.25;100.00;52664.22;2071754;28;31912;-70
2023/11/28 01:48:55;;;;;;;3.92;0.95;;;;;;;-146.25;100.00;52660.19;2080339;28;38806;-69
2023/11/28 01:49:57;;;;;;;1.80;1.13;;;;;;;-146.25;100.00;52652.06;2088287;28;20042;-70
2023/11/28 01:50:59;;;;;;;2.55;1.45;;;;;;;-146.25;100.00;52696.69;2080587;28;20902;-70
2023/11/28 01:52:03;;;;;;;2.78;1.40;;;;;;;-146.25;100.00;52672.34;2080372;28;42925;-70
2023/11/28 01:53:04;;;;;;;2.38;1.50;;;;;;;-146.25;100.00;52654.09;2070950;28;36722;-70
2023/11/28 01:54:07;;;;;;;1.75;1.33;;;;;;;-146.25;100.00;52676.41;2071830;28;34095;-70
2023/11/28 01:55:11;;;;;;;3.45;1.35;;;;;;;-146.25;100.00;52656.13;2080261;28;33952;-70
2023/11/28 01:56:15;;;;;;;2.63;1.70;;;;;;;-146.25;100.00;52652.06;2079520;28;39076;-70
2023/11/28 01:57:17;;;;;;;2.97;1.67;;;;;;;-146.25;100.00;52662.22;2072242;28;20847;-70
2023/11/28 01:58:19;;;;;;;2.13;1.58;;;;;;;-146.25;100.00;52674.38;2063418;28;26334;-70
2023/11/28 01:59:21;;;;;;;2.65;1.70;;;;;;;-146.25;100.00;52676.41;2063664;28;38489;-70
2023/11/28 02:00:25;;;;;;;2.47;1.52;;;;;;;-146.25;100.00;52652.06;2080358;28;20030;-70
2023/11/28 02:01:28;;;;;;;3.03;1.80;;;;;;;-146.25;100.00;52643.97;2079742;28;37494;-70
2023/11/28 02:02:31;;;;;;;3.17;1.55;;;;;;;-146.25;100.00;52684.50;2079013;28;41183;-70
2023/11/28 02:03:37;;;;;;;3.55;1.58;;;;;;;-146.25;100.00;52637.88;2080610;28;20897;-69
2023/11/28 02:04:39;;;;;;;2.83;1.63;;;;;;;-146.25;100.00;52676.41;2079656;28;28323;-69
2023/11/28 02:05:41;;;;;;;2.88;1.85;;;;;;;-146.25;100.00;52668.28;2079430;28;40171;-69
2023/11/28 02:06:44;;;;;;;3.45;1.73;;;;;;;-146.25;100.00;52668.28;2080709;28;20057;-70
2023/11/28 02:07:49;;;;;;;2.83;2.03;;;;;;;-146.25;100.00;52660.19;2071361;28;33349;-70
2023/11/28 02:08:51;;;;;;;3.83;1.98;;;;;;;-146.25;100.00;52656.13;2072955;28;35208;-70
2023/11/28 02:09:54;;;;;;;3.13;1.75;;;;;;;-146.25;100.00;52599.34;2071181;28;38157;-69
2023/11/28 02:10:56;;;;;;;2.50;2.00;;;;;;;-146.25;100.00;52666.25;2063812;28;38349;-69
2023/11/28 02:11:59;;;;;;;3.17;1.88;;;;;;;-146.25;100.00;52668.28;2080044;28;20042;-69
2023/11/28 02:13:01;;;;;;;3.38;1.92;;;;;;;-146.25;100.00;52633.81;2088555;28;20085;-70
2023/11/28 02:14:03;;;;;;;4.15;2.35;;;;;;;-146.25;100.00;52629.75;2088588;28;20438;-69
2023/11/28 02:15:06;;;;;;;3.42;2.17;;;;;;;-146.25;100.00;52708.84;2087805;28;20764;-70
2023/11/28 02:16:15;;;;;;;2.80;1.70;;;;;;;-146.25;100.00;52664.22;2079493;28;31567;-69
2023/11/28 02:17:17;;;;;;;2.42;1.90;;;;;;;-146.25;100.00;52690.59;2079972;28;20058;-69
2023/11/28 02:18:19;;;;;;;3.08;2.33;;;;;;;-146.25;100.00;52635.84;2079645;28;38015;-69
2023/11/28 02:19:21;;;;;;;3.53;2.00;;;;;;;-146.25;100.00;52645.97;2087639;28;42483;-70
2023/11/28 02:20:23;;;;;;;2.22;2.00;;;;;;;-146.25;100.00;52660.19;2087788;28;20898;-68
2023/11/28 02:21:25;;;;;;;3.13;2.15;;;;;;;-146.25;100.00;52627.75;2079727;28;40148;-69
2023/11/28 02:22:27;;;;;;;3.50;2.47;;;;;;;-146.25;100.00;52629.75;2080501;28;28939;-69
2023/11/28 02:23:29;;;;;;;2.80;2.17;;;;;;;-146.25;100.00;52674.38;2079055;28;38958;-69
2023/11/28 02:24:38;;;;;;;3.55;1.90;;;;;;;-146.25;100.00;52637.88;2079795;28;37628;-69
2023/11/28 02:25:47;;;;;;;4.18;2.25;;;;;;;-146.25;100.00;52615.56;2071876;28;20772;-69
2023/11/28 02:26:51;;;;;;;4.15;1.85;;;;;;;-146.25;100.00;52674.38;2065680;28;36585;-69
2023/11/28 02:27:53;;;;;;;3.15;1.90;;;;;;;-146.25;100.00;52643.97;2079454;28;39459;-69
2023/11/28 02:28:56;;;;;;;2.70;2.15;;;;;;;-146.25;100.00;52694.66;2079845;28;20727;-69
2023/11/28 02:29:58;;;;;;;2.83;2.17;;;;;;;-146.25;100.00;52645.97;2080555;28;20042;-70
2023/11/28 02:31:00;;;;;;;2.55;1.70;;;;;;;-146.25;100.00;52682.47;2080222;28;36646;-69
2023/11/28 02:32:02;;;;;;;3.22;1.90;;;;;;;-146.25;100.00;52666.25;2080235;28;35938;-69
2023/11/28 02:33:06;;;;;;;3.60;2.00;;;;;;;-146.25;100.00;52635.84;2078887;28;44048;-69
2023/11/28 02:34:08;;;;;;;4.65;2.00;;;;;;;-146.25;100.00;52682.47;2080124;28;20041;-69
2023/11/28 02:35:10;;;;;;;2.95;2.13;;;;;;;-146.25;100.00;52680.47;2079749;28;38889;-70
2023/11/28 02:36:21;;;;;;;2.33;1.75;;;;;;;-146.25;100.00;52680.47;2079031;28;41555;-69
2023/11/28 02:37:25;;;;;;;2.33;1.92;;;;;;;-146.25;100.00;52656.13;2080657;28;20831;-69
2023/11/28 02:38:30;;;;;;;3.72;2.10;;;;;;;-146.25;100.00;52670.31;2087860;28;20160;-69
2023/11/28 02:39:32;;;;;;;2.95;2.03;;;;;;;-146.25;100.00;52682.47;2087561;28;20107;-69
2023/11/28 02:40:35;;;;;;;2.95;1.98;;;;;;;-146.25;100.00;52643.97;2079858;28;36252;-69
2023/11/28 02:41:36;;;;;;;4.32;2.10;;;;;;;-146.25;100.00;52619.63;2078863;28;41843;-69
2023/11/28 02:42:38;;;;;;;2.83;1.95;;;;;;;-146.25;100.00;52670.31;2080836;28;20038;-69
2023/11/28 02:43:40;;;;;;;3.53;2.00;;;;;;;-146.25;100.00;52660.19;2079426;28;38583;-68
2023/11/28 02:44:43;;;;;;;2.75;2.08;;;;;;;-146.25;100.00;52674.38;2079999;28;37033;-69
2023/11/28 02:45:45;;;;;;;3.63;2.00;;;;;;;-146.25;100.00;52660.19;2079659;28;35832;-68
2023/11/28 02:46:49;;;;;;;2.47;1.83;;;;;;;-146.25;100.00;52660.19;2080400;28;20997;-71
2023/11/28 02:47:52;;;;;;;2.75;2.00;;;;;;;-146.25;100.00;52639.91;2080555;28;20180;-69
2023/11/28 02:48:54;;;;;;;4.00;2.58;;;;;;;-146.25;100.00;52627.75;2080683;28;20045;-70
2023/11/28 02:49:56;;;;;;;3.50;2.40;;;;;;;-146.25;100.00;52672.34;2079864;28;34330;-69
2023/11/28 02:50:58;;;;;;;2.75;2.30;;;;;;;-146.25;100.00;52662.22;2080735;28;20093;-69
2023/11/28 02:52:00;;;;;;;3.08;1.77;;;;;;;-146.25;100.00;52684.50;2078843;28;43398;-69
2023/11/28 02:53:01;;;;;;;2.95;2.22;;;;;;;-146.25;100.00;52629.75;2079695;28;33195;-70
2023/11/28 02:54:03;;;;;;;4.38;2.45;;;;;;;-146.25;100.00;52666.25;2079714;28;35824;-69
2023/11/28 02:55:06;;;;;;;4.15;2.30;;;;;;;-146.25;100.00;52654.09;2079854;28;36621;-70
2023/11/28 02:56:11;;;;;;;3.65;1.95;;;;;;;-146.25;100.00;52639.91;2079212;28;39199;-70
2023/11/28 02:57:13;;;;;;;3.00;2.00;;;;;;;-146.25;100.00;52692.63;2080130;28;20210;-70
2023/11/28 02:58:14;;;;;;;2.30;1.77;;;;;;;-146.25;100.00;52652.06;2079590;28;33369;-69
2023/11/28 02:59:16;;;;;;;3.45;2.10;;;;;;;-146.25;100.00;52650.03;2080936;28;20042;-69
2023/11/28 03:00:18;;;;;;;3.63;2.50;;;;;;;-146.25;100.00;52676.41;2078867;28;38830;-69
2023/11/28 03:01:23;;;;;;;2.95;2.10;;;;;;;-146.25;100.00;52652.06;2079637;28;39417;-69
2023/11/28 03:02:24;;;;;;;4.63;2.17;;;;;;;-146.25;100.00;52643.97;2080258;28;20053;-69
2023/11/28 03:03:28;;;;;;;2.53;2.10;;;;;;;-146.25;100.00;52672.34;2079746;28;41289;-69
2023/11/28 03:04:30;;;;;;;5.20;2.05;;;;;;;-146.25;100.00;52654.09;2079557;28;35320;-69
2023/11/28 03:05:32;;;;;;;2.97;1.95;;;;;;;-146.25;100.00;52648.00;2087715;28;20051;-70
2023/11/28 03:06:36;;;;;;;2.67;1.80;;;;;;;-146.25;100.00;52686.53;2086792;28;35955;-70
2023/11/28 03:07:38;;;;;;;2.65;2.00;;;;;;;-146.25;100.00;52674.38;2078971;28;37036;-69
2023/11/28 03:08:40;;;;;;;2.20;2.00;;;;;;;-146.25;100.00;52672.34;2071494;28;20808;-69
2023/11/28 03:09:42;;;;;;;2.40;2.00;;;;;;;-146.25;100.00;52645.97;2079266;28;35314;-70
2023/11/28 03:10:43;;;;;;;3.50;1.95;;;;;;;-146.25;100.00;52668.28;2078887;28;41761;-69
2023/11/28 03:11:48;;;;;;;2.33;2.00;;;;;;;-146.25;100.00;52656.13;2080122;28;20969;-69
2023/11/28 03:12:51;;;;;;;2.50;2.08;;;;;;;-146.25;100.00;52676.41;2080715;28;20859;-69
2023/11/28 03:13:52;;;;;;;2.20;1.80;;;;;;;-146.25;100.00;52692.63;2080098;28;33128;-69
2023/11/28 03:14:58;;;;;;;2.58;1.80;;;;;;;-146.25;100.00;52704.78;2079693;28;34378;-69
2023/11/28 03:16:01;;;;;;;3.92;1.98;;;;;;;-146.25;100.00;52641.94;2079624;28;38814;-69
2023/11/28 03:17:04;;;;;;;3.42;2.00;;;;;;;-146.25;100.00;52680.47;2080305;28;20077;-70
2023/11/28 03:18:08;;;;;;;3.13;1.75;;;;;;;-146.25;100.00;52617.59;2080551;28;21154;-69
2023/11/28 03:19:11;;;;;;;3.72;2.17;;;;;;;-146.25;100.00;52656.13;2086513;28;37646;-69
2023/11/28 03:20:13;;;;;;;4.47;2.10;;;;;;;-146.25;100.00;52690.59;2087545;28;34203;-69
2023/11/28 03:21:15;;;;;;;4.35;2.50;;;;;;;-146.25;100.00;52696.69;2079429;28;40317;-69
2023/11/28 03:22:16;;;;;;;3.25;2.53;;;;;;;-146.25;100.00;52648.00;2080690;28;20046;-69
2023/11/28 03:23:18;;;;;;;3.63;2.53;;;;;;;-146.25;100.00;52660.19;2079867;28;26684;-70
2023/11/28 03:24:21;;;;;;;4.78;2.20;;;;;;;-146.25;100.00;52631.78;2080621;28;20911;-69
2023/11/28 03:25:23;;;;;;;4.47;2.50;;;;;;;-146.25;100.00;52666.25;2080308;28;20041;-69
2023/11/28 03:26:24;;;;;;;4.22;2.33;;;;;;;-146.25;100.00;52641.94;2070959;28;33047;-69
2023/11/28 03:27:26;;;;;;;3.38;2.90;;;;;;;-146.25;100.00;52688.56;2071230;28;33332;-70
2023/11/28 03:28:28;;;;;;;2.60;2.28;;;;;;;-146.25;100.00;52650.03;2080673;28;20031;-70
2023/11/28 03:29:30;;;;;;;4.35;2.58;;;;;;;-146.25;100.00;52672.34;2078735;28;41866;-67
2023/11/28 03:30:31;;;;;;;4.10;2.80;;;;;;;-146.25;100.00;52676.41;2080077;28;34533;-69
2023/11/28 03:31:33;;;;;;;3.72;2.55;;;;;;;-146.25;100.00;52660.19;2079695;28;34019;-69
2023/11/28 03:32:37;;;;;;;8.50;3.10;;;;;;;-146.25;100.00;52688.56;2088264;28;20037;-70
2023/11/28 03:33:39;;;;;;;7.43;3.10;;;;;;;-146.25;100.00;52643.97;2087051;28;35960;-70
2023/11/28 03:34:40;;;;;;;5.25;3.03;;;;;;;-146.25;100.00;52648.00;2079735;28;43351;-70
2023/11/28 03:35:42;;;;;;;3.70;2.95;;;;;;;-146.25;100.00;52684.50;2079408;28;41346;-69
2023/11/28 03:36:44;;;;;;;4.00;3.03;;;;;;;-146.25;100.00;52680.47;2080424;28;20050;-70
2023/11/28 03:37:46;;;;;;;4.38;2.92;;;;;;;-146.25;100.00;52660.19;2079193;28;41070;-69
2023/11/28 03:38:48;;;;;;;4.60;3.20;;;;;;;-146.25;100.00;52682.47;2079600;28;34609;-70
2023/11/28 03:39:53;;;;;;;5.63;3.30;;;;;;;-146.25;100.00;52623.69;2079817;28;20041;-70
2023/11/28 03:40:55;;;;;;;4.18;3.05;;;;;;;-146.25;100.00;52676.41;2087807;28;20033;-69
2023/11/28 03:41:57;;;;;;;4.82;3.35;;;;;;;-146.25;100.00;52635.84;2079474;28;20046;-69
2023/11/28 03:42:59;;;;;;;4.10;2.80;;;;;;;-146.25;100.00;52672.34;2079544;28;20161;-70
2023/11/28 03:44:01;;;;;;;5.55;3.55;;;;;;;-146.25;100.00;52668.28;2087132;28;42224;-70
2023/11/28 03:45:04;;;;;;;6.03;3.35;;;;;;;-146.25;100.00;52615.56;2079478;28;35532;-70
2023/11/28 03:46:06;;;;;;;5.05;3.30;;;;;;;-146.25;100.00;52639.91;2079378;28;40009;-69
2023/11/28 03:47:08;;;;;;;8.68;3.75;;;;;;;-146.25;100.00;52670.31;2087665;28;20057;-70
2023/11/28 03:48:09;;;;;;;6.80;3.40;;;;;;;-146.25;100.00;52672.34;2086574;28;34372;-69
2023/11/28 03:49:11;;;;;;;5.93;3.50;;;;;;;-146.25;100.00;52639.91;2078573;28;41449;-69
2023/11/28 03:50:13;;;;;;;4.95;3.42;;;;;;;-146.25;100.00;52674.38;2078615;28;39002;-70
2023/11/28 03:51:17;;;;;;;7.38;3.33;;;;;;;-146.25;100.00;52692.63;2079394;28;20042;-69
2023/11/28 03:52:18;;;;;;;6.85;3.90;;;;;;;-146.25;100.00;52674.38;2087388;28;20128;-70
2023/11/28 03:53:20;;;;;;;5.18;3.80;;;;;;;-146.25;100.00;52645.97;2081300;28;20042;-69
2023/11/28 03:54:22;;;;;;;7.05;3.92;;;;;;;-146.25;100.00;52643.97;2081525;28;22194;-70
2023/11/28 03:55:25;;;;;;;4.43;3.28;;;;;;;-146.25;100.00;52678.44;2080728;28;20344;-70
2023/11/28 03:56:26;;;;;;;4.30;3.40;;;;;;;-146.25;100.00;52656.13;2080584;28;33578;-69
2023/11/28 03:57:28;;;;;;;5.75;3.65;;;;;;;-146.25;100.00;52648.00;2081966;28;20824;-70
2023/11/28 03:58:30;;;;;;;7.57;3.92;;;;;;;-146.25;100.00;52668.28;2080554;28;37772;-70
2023/11/28 03:59:32;;;;;;;5.00;3.80;;;;;;;-146.25;100.00;52648.00;2080957;28;20042;-70
2023/11/28 04:00:33;;;;;;;5.78;4.30;;;;;;;-146.25;100.00;52648.00;2080440;28;27844;-69
2023/11/28 04:01:35;;;;;;;7.47;4.40;;;;;;;-146.25;100.00;52690.59;2080201;28;37463;-70
2023/11/28 04:02:37;;;;;;;8.45;3.78;;;;;;;-146.25;100.00;52658.16;2080810;28;20046;-70
2023/11/28 04:03:43;;;;;;;6.45;4.30;;;;;;;-146.25;100.00;52676.41;2081496;28;20038;-69
2023/11/28 04:04:45;;;;;;;6.22;4.28;;;;;;;-146.25;100.00;52668.28;2088146;28;37692;-70
2023/11/28 04:05:49;;;;;;;4.90;3.92;;;;;;;-146.25;100.00;52652.06;2082155;28;20120;-70
2023/11/28 04:06:52;;;;;;;5.97;4.03;;;;;;;-146.25;100.00;52607.47;2080525;28;20107;-70
2023/11/28 04:07:54;;;;;;;6.10;3.97;;;;;;;-146.25;100.00;52662.22;2080975;28;20108;-70
2023/11/28 04:08:56;;;;;;;8.30;4.38;;;;;;;-146.25;100.00;52637.88;2080294;28;35201;-70
2023/11/28 04:09:58;;;;;;;6.72;4.03;;;;;;;-146.25;100.00;52656.13;2080672;28;20957;-69
2023/11/28 04:11:04;;;;;;;5.65;3.72;;;;;;;-146.25;100.00;52645.97;2072385;28;20042;-70
2023/11/28 04:12:06;;;;;;;6.03;3.97;;;;;;;-146.25;100.00;52633.81;2072705;28;20046;-70
2023/11/28 04:13:07;;;;;;;5.80;4.28;;;;;;;-146.25;100.00;52645.97;2080591;28;26251;-70
2023/11/28 04:14:11;;;;;;;5.40;4.28;;;;;;;-146.25;100.00;52660.19;2088738;28;26802;-70
2023/11/28 04:15:13;;;;;;;5.30;3.80;;;;;;;-146.25;100.00;52650.03;2080336;28;29261;-69
2023/11/28 04:16:20;;;;;;;6.00;3.88;;;;;;;-146.25;100.00;52698.72;2081036;28;20077;-70
2023/11/28 04:17:24;;;;;;;6.90;4.20;;;;;;;-146.25;100.00;52692.63;2081423;28;20093;-70
2023/11/28 04:18:30;;;;;;;8.40;4.35;;;;;;;-146.25;100.00;52670.31;2079818;28;34502;-70
2023/11/28 04:19:32;;;;;;;5.72;4.28;;;;;;;-146.25;100.00;52672.34;2081279;28;20050;-70
2023/11/28 04:20:36;;;;;;;5.53;4.43;;;;;;;-146.25;100.00;52650.03;2080489;28;24199;-70
2023/11/28 04:21:37;;;;;;;5.88;4.10;;;;;;;-146.25;100.00;52672.34;2072452;28;20093;-70
2023/11/28 04:22:39;;;;;;;7.57;4.25;;;;;;;-146.25;100.00;52676.41;2080600;28;20101;-70
2023/11/28 04:23:44;;;;;;;4.80;4.00;;;;;;;-146.25;100.00;52676.41;2080706;28;20042;-69
2023/11/28 04:24:45;;;;;;;5.82;3.72;;;;;;;-146.25;100.00;52660.19;2078125;28;35551;-70
2023/11/28 04:25:51;;;;;;;7.07;4.13;;;;;;;-146.25;100.00;52700.72;2072447;28;20038;-70
2023/11/28 04:26:53;;;;;;;6.60;4.20;;;;;;;-146.25;100.00;52680.47;2064669;28;20484;-70
2023/11/28 04:27:56;;;;;;;5.55;3.85;;;;;;;-146.25;100.00;52648.00;2064739;28;20126;-69
2023/11/28 04:29:00;;;;;;;7.47;3.78;;;;;;;-146.25;100.00;52641.94;2072671;28;20078;-70
2023/11/28 04:30:04;;;;;;;7.18;3.80;;;;;;;-146.25;100.00;52702.75;2072380;28;20922;-70
2023/11/28 04:31:17;;;;;;;5.32;3.42;;;;;;;-146.25;100.00;52643.97;2064963;28;20145;-70
2023/11/28 04:32:23;;;;;;;7.47;3.75;;;;;;;-146.25;100.00;52664.22;2072756;28;20050;-70
2023/11/28 04:33:24;;;;;;;4.82;3.70;;;;;;;-146.25;100.00;52670.31;2064487;28;20940;-70
2023/11/28 04:34:27;;;;;;;5.07;3.78;;;;;;;-146.25;100.00;52643.97;2056875;28;20812;-70
2023/11/28 04:35:29;;;;;;;4.57;3.50;;;;;;;-146.25;100.00;52688.56;2072685;28;20030;-69
2023/11/28 04:36:31;;;;;;;7.78;3.47;;;;;;;-146.25;100.00;52652.06;2079842;28;25541;-70
2023/11/28 04:37:33;;;;;;;6.68;3.58;;;;;;;-146.25;100.00;52658.16;2072077;28;36927;-68
2023/11/28 04:38:36;;;;;;;5.55;3.63;;;;;;;-146.25;100.00;52611.50;2064229;28;23345;-70
2023/11/28 04:39:38;;;;;;;4.72;3.65;;;;;;;-146.25;100.00;52688.56;2064663;28;21063;-69
2023/11/28 04:40:40;;;;;;;5.22;3.55;;;;;;;-146.25;100.00;52666.25;2071960;28;20957;-70
2023/11/28 04:41:42;;;;;;;4.75;3.40;;;;;;;-146.25;100.00;52684.50;2064497;28;20049;-70
2023/11/28 04:42:43;;;;;;;5.55;4.35;;;;;;;-146.25;100.00;52658.16;2072450;28;20169;-70
2023/11/28 04:43:45;;;;;;;6.78;3.58;;;;;;;-146.25;100.00;52645.97;2075950;28;27642;-70
2023/11/28 04:44:47;;;;;;;4.93;3.55;;;;;;;-146.25;100.00;52619.63;2071721;28;35275;-69